createdAt,value
2023-03-05T00:01:50.190Z,12.00
2023-03-05T00:04:16.971Z,8.60
2023-03-05T00:06:43.893Z,13.63
2023-03-05T00:09:10.856Z,10.68
2023-03-05T00:11:37.386Z,11.95
2023-03-05T00:14:04.470Z,10.20
2023-03-05T00:16:31.329Z,13.68
2023-03-05T00:18:59.506Z,11.02
2023-03-05T00:21:31.517Z,14.35
2023-03-05T00:23:59.779Z,10.82
2023-03-05T00:26:26.598Z,10.65
2023-03-05T00:28:54.519Z,10.32
2023-03-05T00:31:24.090Z,13.85
2023-03-05T00:33:55.695Z,19.63
2023-03-05T00:36:23.857Z,13.55
2023-03-05T00:38:50.796Z,15.60
2023-03-05T00:41:17.360Z,12.60
2023-03-05T00:43:44.028Z,16.40
2023-03-05T00:46:11.233Z,11.70
2023-03-05T00:48:37.880Z,12.43
2023-03-05T00:51:04.878Z,14.63
2023-03-05T00:53:31.580Z,12.70
2023-03-05T00:55:59.084Z,15.20
2023-03-05T00:58:25.868Z,14.15
2023-03-05T01:00:52.424Z,16.45
2023-03-05T01:03:19.356Z,12.43
2023-03-05T01:05:46.194Z,15.57
2023-03-05T01:08:12.740Z,13.35
2023-03-05T01:10:39.501Z,12.88
2023-03-05T01:13:06.029Z,15.82
2023-03-05T01:15:32.628Z,12.70
2023-03-05T01:17:59.161Z,15.02
2023-03-05T01:20:26.804Z,14.55
2023-03-05T01:22:53.419Z,16.42
2023-03-05T01:25:20.515Z,17.42
2023-03-05T01:27:47.265Z,17.60
2023-03-05T01:30:14.987Z,15.48
2023-03-05T01:32:41.573Z,15.15
2023-03-05T01:35:09.282Z,16.52
2023-03-05T01:37:35.821Z,15.65
2023-03-05T01:40:02.466Z,17.48
2023-03-05T01:42:28.968Z,16.25
2023-03-05T01:45:01.139Z,15.00
2023-03-05T01:47:27.730Z,14.23
2023-03-05T01:49:54.398Z,18.35
2023-03-05T01:52:23.358Z,14.35
2023-03-05T01:54:56.707Z,14.70
2023-03-05T01:57:30.420Z,25.55
2023-03-05T02:00:02.079Z,17.85
2023-03-05T02:02:40.934Z,16.25
2023-03-05T02:05:12.986Z,16.65
2023-03-05T02:07:40.146Z,17.35
2023-03-05T02:10:21.866Z,15.57
2023-03-05T02:12:50.141Z,16.83
2023-03-05T02:15:17.731Z,15.35
2023-03-05T02:17:44.990Z,16.50
2023-03-05T02:20:23.200Z,15.43
2023-03-05T02:22:49.930Z,15.82
2023-03-05T02:25:24.141Z,15.88
2023-03-05T02:28:05.672Z,17.08
2023-03-05T02:32:59.218Z,19.98
2023-03-05T02:35:27.129Z,19.45
2023-03-05T02:37:53.710Z,16.20
2023-03-05T02:40:20.388Z,16.27
2023-03-05T02:42:47.296Z,15.10
2023-03-05T02:45:15.818Z,16.58
2023-03-05T02:47:42.808Z,16.98
2023-03-05T02:50:11.136Z,15.68
2023-03-05T02:52:38.892Z,15.70
2023-03-05T02:55:09.543Z,14.70
2023-03-05T02:57:37.253Z,17.38
2023-03-05T03:00:05.445Z,16.70
2023-03-05T03:02:32.297Z,13.95
2023-03-05T03:04:59.080Z,16.90
2023-03-05T03:07:26.013Z,17.50
2023-03-05T03:09:52.586Z,16.25
2023-03-05T03:12:19.390Z,13.35
2023-03-05T03:14:45.962Z,19.23
2023-03-05T03:17:17.829Z,19.15
2023-03-05T03:19:45.139Z,16.17
2023-03-05T03:22:13.739Z,13.57
2023-03-05T03:24:42.136Z,20.38
2023-03-05T03:27:09.110Z,14.40
2023-03-05T03:29:37.217Z,15.82
2023-03-05T03:32:04.015Z,16.73
2023-03-05T03:34:30.844Z,20.45
2023-03-05T03:36:57.379Z,17.17
2023-03-05T03:39:23.915Z,15.90
2023-03-05T03:41:52.784Z,22.52
2023-03-05T03:44:21.612Z,24.50
2023-03-05T03:46:50.482Z,17.63
2023-03-05T03:49:18.366Z,18.77
2023-03-05T03:51:45.337Z,19.45
2023-03-05T03:54:13.255Z,23.92
2023-03-05T03:56:40.015Z,15.27
2023-03-05T03:59:06.530Z,16.77
2023-03-05T04:01:33.292Z,18.15
2023-03-05T04:04:00.053Z,16.33
2023-03-05T04:06:27.037Z,17.58
2023-03-05T04:08:53.625Z,19.42
2023-03-05T04:11:20.456Z,20.10
2023-03-05T04:13:47.280Z,20.15
2023-03-05T04:16:14.861Z,19.30
2023-03-05T04:18:42.716Z,19.88
2023-03-05T04:21:09.700Z,18.75
2023-03-05T04:23:36.432Z,22.75
2023-03-05T04:26:03.622Z,22.52
2023-03-05T04:28:30.496Z,17.48
2023-03-05T04:30:57.275Z,18.73
2023-03-05T04:33:23.815Z,21.52
2023-03-05T04:35:50.698Z,16.35
2023-03-05T04:38:17.756Z,19.48
2023-03-05T04:40:45.642Z,18.45
2023-03-05T04:43:12.427Z,19.58
2023-03-05T04:45:40.824Z,20.33
2023-03-05T04:48:08.105Z,21.70
2023-03-05T04:50:34.691Z,18.17
2023-03-05T04:53:01.845Z,22.38
2023-03-05T04:55:28.703Z,19.92
2023-03-05T04:57:55.274Z,21.63
2023-03-05T05:00:22.149Z,20.15
2023-03-05T05:02:50.689Z,23.55
2023-03-05T05:05:23.390Z,25.35
2023-03-05T05:07:53.357Z,20.38
2023-03-05T05:10:19.989Z,22.05
2023-03-05T05:12:46.532Z,19.65
2023-03-05T05:15:13.378Z,21.50
2023-03-05T05:17:40.394Z,23.48
2023-03-05T05:20:08.807Z,22.05
2023-03-05T05:22:35.531Z,23.08
2023-03-05T05:25:02.199Z,20.85
2023-03-05T05:27:28.949Z,23.90
2023-03-05T05:29:55.998Z,22.70
2023-03-05T05:32:23.630Z,25.35
2023-03-05T05:34:58.375Z,23.48
2023-03-05T05:37:26.205Z,27.75
2023-03-05T05:39:52.984Z,23.52
2023-03-05T05:42:22.369Z,29.65
2023-03-05T05:44:49.657Z,27.38
2023-03-05T05:47:17.663Z,23.52
2023-03-05T05:49:44.314Z,27.88
2023-03-05T05:52:11.164Z,27.15
2023-03-05T05:54:38.543Z,25.75
2023-03-05T05:57:05.601Z,24.15
2023-03-05T05:59:32.163Z,29.13
2023-03-05T06:01:59.003Z,26.55
2023-03-05T06:04:25.790Z,24.52
2023-03-05T06:06:52.307Z,26.08
2023-03-05T06:09:18.818Z,27.50
2023-03-05T06:11:45.410Z,27.35
2023-03-05T06:14:12.857Z,27.58
2023-03-05T06:16:39.657Z,30.05
2023-03-05T06:19:06.640Z,26.95
2023-03-05T06:21:33.474Z,29.48
2023-03-05T06:24:00.651Z,29.23
2023-03-05T06:26:27.204Z,28.95
2023-03-05T06:28:54.181Z,32.50
2023-03-05T06:31:22.752Z,26.73
2023-03-05T06:33:50.112Z,26.25
2023-03-05T06:36:20.577Z,27.73
2023-03-05T06:38:48.978Z,32.67
2023-03-05T06:41:19.044Z,31.50
2023-03-05T06:43:47.185Z,27.45
2023-03-05T06:46:26.494Z,28.20
2023-03-05T06:48:55.913Z,25.35
2023-03-05T06:51:28.672Z,32.70
2023-03-05T06:53:56.599Z,29.90
2023-03-05T06:56:23.579Z,27.27
2023-03-05T06:58:51.813Z,26.75
2023-03-05T07:01:20.132Z,29.05
2023-03-05T07:03:50.725Z,28.65
2023-03-05T07:06:17.324Z,29.10
2023-03-05T07:08:44.236Z,26.25
2023-03-05T07:11:16.282Z,26.48
2023-03-05T07:13:43.065Z,29.13
2023-03-05T07:16:14.845Z,27.60
2023-03-05T07:18:41.676Z,27.27
2023-03-05T07:21:09.349Z,25.38
2023-03-05T07:23:36.618Z,28.60
2023-03-05T07:26:04.772Z,28.92
2023-03-05T07:28:31.614Z,28.15
2023-03-05T07:31:04.319Z,28.73
2023-03-05T07:33:31.373Z,29.00
2023-03-05T07:35:58.058Z,24.00
2023-03-05T07:38:24.719Z,27.55
2023-03-05T07:40:51.246Z,32.22
2023-03-05T07:43:18.313Z,30.10
2023-03-05T07:45:45.990Z,26.48
2023-03-05T07:48:15.812Z,25.58
2023-03-05T07:50:43.036Z,29.70
2023-03-05T07:53:10.527Z,30.90
2023-03-05T07:55:42.865Z,28.48
2023-03-05T07:58:09.861Z,27.05
2023-03-05T08:00:36.619Z,28.25
2023-03-05T08:03:03.639Z,27.17
2023-03-05T08:05:30.364Z,23.08
2023-03-05T08:07:56.921Z,22.33
2023-03-05T08:10:23.476Z,22.80
2023-03-05T08:12:49.962Z,22.27
2023-03-05T08:15:16.575Z,26.73
2023-03-05T08:17:43.441Z,26.13
2023-03-05T08:20:10.498Z,26.23
2023-03-05T08:22:37.852Z,26.60
2023-03-05T08:25:06.345Z,22.50
2023-03-05T08:27:33.165Z,25.67
2023-03-05T08:30:02.039Z,23.50
2023-03-05T08:32:29.293Z,20.95
2023-03-05T08:34:57.215Z,24.25
2023-03-05T08:37:24.118Z,22.70
2023-03-05T08:39:50.805Z,25.05
2023-03-05T08:42:20.381Z,21.05
2023-03-05T08:44:47.051Z,23.00
2023-03-05T08:47:13.698Z,22.35
2023-03-05T08:49:40.208Z,22.90
2023-03-05T08:52:06.865Z,22.52
2023-03-05T08:54:34.115Z,25.63
2023-03-05T08:57:00.614Z,23.77
2023-03-05T08:59:29.082Z,21.50
2023-03-05T09:01:56.278Z,24.73
2023-03-05T09:04:22.813Z,21.40
2023-03-05T09:06:49.340Z,22.25
2023-03-05T09:09:17.562Z,18.90
2023-03-05T09:11:44.063Z,26.50
2023-03-05T09:14:10.854Z,24.17
2023-03-05T09:16:37.563Z,24.50
2023-03-05T09:19:04.145Z,28.00
2023-03-05T09:21:30.972Z,23.50
2023-03-05T09:23:57.437Z,24.50
2023-03-05T09:26:23.948Z,24.58
2023-03-05T09:28:50.519Z,23.05
2023-03-05T09:31:17.913Z,24.67
2023-03-05T09:33:44.789Z,20.92
2023-03-05T09:36:26.908Z,22.70
2023-03-05T09:38:54.119Z,24.60
2023-03-05T09:41:35.798Z,21.77
2023-03-05T09:44:05.454Z,27.55
2023-03-05T09:46:36.119Z,25.30
2023-03-05T09:49:15.978Z,17.33
2023-03-05T09:51:45.452Z,23.98
2023-03-05T09:54:39.737Z,22.27
2023-03-05T09:57:15.041Z,22.48
2023-03-05T09:59:48.709Z,23.52
2023-03-05T10:02:24.323Z,22.73
2023-03-05T10:04:57.757Z,24.65
2023-03-05T10:07:29.934Z,22.90
2023-03-05T10:10:03.518Z,23.52
2023-03-05T10:12:59.941Z,21.02
2023-03-05T10:16:06.299Z,22.20
2023-03-05T10:18:51.555Z,23.95
2023-03-05T10:21:30.861Z,22.30
2023-03-05T10:24:35.436Z,22.30
2023-03-05T10:27:14.069Z,20.13
2023-03-05T10:30:03.063Z,24.52
2023-03-05T10:32:44.679Z,22.13
2023-03-05T10:37:49.866Z,23.10
2023-03-05T10:40:37.513Z,25.05
2023-03-05T10:43:18.198Z,22.45
2023-03-05T10:45:48.652Z,27.58
2023-03-05T10:48:35.274Z,22.90
2023-03-05T10:51:13.533Z,25.08
2023-03-05T10:53:54.688Z,23.15
2023-03-05T10:56:23.809Z,23.42
2023-03-05T10:58:50.582Z,18.80
2023-03-05T11:01:27.478Z,23.00
2023-03-05T11:04:05.725Z,22.00
2023-03-05T11:06:41.279Z,21.42
2023-03-05T11:09:17.342Z,20.15
2023-03-05T11:11:45.369Z,19.63
2023-03-05T11:14:25.362Z,23.52
2023-03-05T11:16:52.360Z,20.90
2023-03-05T11:19:33.474Z,17.08
2023-03-05T11:22:19.433Z,19.42
2023-03-05T11:25:04.225Z,20.48
2023-03-05T11:27:38.007Z,18.80
2023-03-05T11:30:19.315Z,18.38
2023-03-05T11:32:46.314Z,17.35
2023-03-05T11:35:34.041Z,16.67
2023-03-05T11:38:03.538Z,26.75
2023-03-05T11:40:32.455Z,15.75
2023-03-05T11:43:00.481Z,17.05
2023-03-05T11:45:29.091Z,16.73
2023-03-05T11:48:01.329Z,16.65
2023-03-05T11:50:33.501Z,15.77
2023-03-05T11:53:14.773Z,16.10
2023-03-05T11:55:48.381Z,14.35
2023-03-05T11:58:28.417Z,17.05
2023-03-05T12:00:55.726Z,17.17
2023-03-05T12:03:35.530Z,15.95
2023-03-05T12:06:29.553Z,16.38
2023-03-05T12:09:00.546Z,19.88
2023-03-05T12:11:30.785Z,16.05
2023-03-05T12:14:10.875Z,14.18
2023-03-05T12:16:48.487Z,15.32
2023-03-05T12:19:28.217Z,17.60
2023-03-05T12:21:54.992Z,15.05
2023-03-05T12:24:27.745Z,15.82
2023-03-05T12:26:56.749Z,14.18
2023-03-05T12:29:27.922Z,19.70
2023-03-05T12:31:54.518Z,14.38
2023-03-05T12:34:40.492Z,12.40
2023-03-05T12:37:22.550Z,13.80
2023-03-05T12:40:01.901Z,13.07
2023-03-05T12:42:28.614Z,15.10
2023-03-05T12:45:10.464Z,18.17
2023-03-05T12:47:44.724Z,14.38
2023-03-05T12:50:26.513Z,16.23
2023-03-05T12:55:24.390Z,15.00
2023-03-05T12:58:01.460Z,16.50
2023-03-05T13:00:43.043Z,15.00
2023-03-05T13:03:14.514Z,17.17
2023-03-05T13:05:49.642Z,13.98
2023-03-05T13:08:19.093Z,16.48
2023-03-05T13:10:55.403Z,13.23
2023-03-05T13:13:22.675Z,12.68
2023-03-05T13:15:50.669Z,13.10
2023-03-05T13:18:21.504Z,13.02
2023-03-05T13:20:48.550Z,13.43
2023-03-05T13:23:25.537Z,14.77
2023-03-05T13:26:20.143Z,15.85
2023-03-05T13:29:05.509Z,15.43
2023-03-05T13:31:35.513Z,14.35
2023-03-05T13:34:15.495Z,14.63
2023-03-05T13:36:47.308Z,14.10
2023-03-05T13:39:21.144Z,14.15
2023-03-05T13:42:04.540Z,14.15
2023-03-05T13:44:32.800Z,13.38
2023-03-05T13:47:21.429Z,13.43
2023-03-05T13:49:56.271Z,14.00
2023-03-05T13:52:29.703Z,14.50
2023-03-05T13:54:58.634Z,16.65
2023-03-05T13:57:52.441Z,16.05
2023-03-05T14:00:35.422Z,17.13
2023-03-05T14:03:23.274Z,14.43
2023-03-05T14:05:50.026Z,15.10
2023-03-05T14:08:21.815Z,14.98
2023-03-05T14:10:49.853Z,17.13
2023-03-05T14:13:22.392Z,15.77
2023-03-05T14:16:09.489Z,14.93
2023-03-05T14:18:37.209Z,16.15
2023-03-05T14:21:08.127Z,17.17
2023-03-05T14:23:48.991Z,13.90
2023-03-05T14:26:36.547Z,16.80
2023-03-05T14:29:08.994Z,13.60
2023-03-05T14:31:58.745Z,15.65
2023-03-05T14:34:32.850Z,20.75
2023-03-05T14:37:02.386Z,17.30
2023-03-05T14:39:37.286Z,17.55
2023-03-05T14:42:15.564Z,15.65
2023-03-05T14:44:42.064Z,17.38
2023-03-05T14:47:08.781Z,17.05
2023-03-05T14:49:35.361Z,15.82
2023-03-05T14:52:02.837Z,15.10
2023-03-05T14:54:36.199Z,15.35
2023-03-05T14:57:05.011Z,15.50
2023-03-05T14:59:34.061Z,14.90
2023-03-05T15:02:00.612Z,14.98
2023-03-05T15:04:30.069Z,18.38
2023-03-05T15:06:56.837Z,17.23
2023-03-05T15:09:25.616Z,17.75
2023-03-05T15:11:52.568Z,15.00
2023-03-05T15:14:19.118Z,20.52
2023-03-05T15:16:46.581Z,19.33
2023-03-05T15:19:13.475Z,19.45
2023-03-05T15:21:40.721Z,21.25
2023-03-05T15:24:07.762Z,22.48
2023-03-05T15:26:35.258Z,19.95
2023-03-05T15:29:01.994Z,14.52
2023-03-05T15:31:28.656Z,16.98
2023-03-05T15:33:55.527Z,18.23
2023-03-05T15:36:22.134Z,15.10
2023-03-05T15:38:48.896Z,24.38
2023-03-05T15:41:15.585Z,36.83
2023-03-05T15:43:42.201Z,16.77
2023-03-05T15:46:08.928Z,40.38
2023-03-05T15:48:35.696Z,17.70
2023-03-05T15:51:09.280Z,16.63
2023-03-05T15:53:35.922Z,15.38
2023-03-05T15:56:02.432Z,19.25
2023-03-05T15:58:28.922Z,17.38
2023-03-05T16:00:55.472Z,19.85
2023-03-05T16:03:22.088Z,16.13
2023-03-05T16:05:49.077Z,19.92
2023-03-05T16:08:15.644Z,22.27
2023-03-05T16:10:42.334Z,19.48
2023-03-05T16:13:12.276Z,17.63
2023-03-05T16:15:40.675Z,17.92
2023-03-05T16:18:12.036Z,15.27
2023-03-05T16:20:38.578Z,19.35
2023-03-05T16:23:05.634Z,19.25
2023-03-05T16:25:32.585Z,16.73
2023-03-05T16:27:59.682Z,17.67
2023-03-05T16:30:26.406Z,20.83
2023-03-05T16:32:53.795Z,22.80
2023-03-05T16:35:20.770Z,16.98
2023-03-05T16:37:47.474Z,17.38
2023-03-05T16:40:14.754Z,24.33
2023-03-05T16:42:41.305Z,21.35
2023-03-05T16:45:08.884Z,23.33
2023-03-05T16:47:35.879Z,21.30
2023-03-05T16:50:03.445Z,25.40
2023-03-05T16:52:30.618Z,20.58
2023-03-05T16:54:57.287Z,18.77
2023-03-05T16:57:23.859Z,20.73
2023-03-05T16:59:50.461Z,14.95
2023-03-05T17:02:17.465Z,14.90
2023-03-05T17:04:44.618Z,15.00
2023-03-05T17:07:11.252Z,19.58
2023-03-05T17:09:38.014Z,17.90
2023-03-05T17:12:04.681Z,12.65
2023-03-05T17:14:31.250Z,13.27
2023-03-05T17:16:58.069Z,12.25
2023-03-05T17:19:24.572Z,13.07
2023-03-05T17:21:51.073Z,10.93
2023-03-05T17:24:18.542Z,15.63
2023-03-05T17:26:45.992Z,12.25
2023-03-05T17:29:12.615Z,13.98
2023-03-05T17:31:39.329Z,12.13
2023-03-05T17:34:05.829Z,15.73
2023-03-05T17:36:32.330Z,13.30
2023-03-05T17:38:58.932Z,16.25
2023-03-05T17:41:25.398Z,11.68
2023-03-05T17:43:51.933Z,12.15
2023-03-05T17:46:18.538Z,15.38
2023-03-05T17:48:45.162Z,11.63
2023-03-05T17:51:13.815Z,10.25
2023-03-05T17:53:40.647Z,12.40
2023-03-05T17:56:12.417Z,12.40
2023-03-05T17:58:39.427Z,14.60
2023-03-05T18:01:07.287Z,15.45
2023-03-05T18:03:34.768Z,12.73
2023-03-05T18:06:01.524Z,12.65
2023-03-05T18:08:28.063Z,11.57
2023-03-05T18:10:54.918Z,10.82
2023-03-05T18:13:21.484Z,12.00
2023-03-05T18:15:48.035Z,11.98
2023-03-05T18:18:16.661Z,11.13
2023-03-05T18:20:43.807Z,12.63
2023-03-05T18:23:10.800Z,13.95
2023-03-05T18:25:37.352Z,12.98
2023-03-05T18:28:07.077Z,14.45
2023-03-05T18:30:34.260Z,13.70
2023-03-05T18:33:01.043Z,12.65
2023-03-05T18:35:28.397Z,16.35
2023-03-05T18:37:55.455Z,14.27
2023-03-05T18:40:25.309Z,14.18
2023-03-05T18:42:52.405Z,14.25
2023-03-05T18:45:21.392Z,13.90
2023-03-05T18:47:48.179Z,11.68
2023-03-05T18:50:17.432Z,14.30
2023-03-05T18:52:45.275Z,14.73
2023-03-05T18:55:21.622Z,14.10
2023-03-05T18:57:48.195Z,14.52
2023-03-05T19:00:27.539Z,13.35
2023-03-05T19:02:55.234Z,13.25
2023-03-05T19:05:22.336Z,11.82
2023-03-05T19:07:49.174Z,13.65
2023-03-05T19:10:16.745Z,14.23
2023-03-05T19:12:44.030Z,17.38
2023-03-05T19:15:13.085Z,14.82
2023-03-05T19:17:39.851Z,12.50
2023-03-05T19:20:07.494Z,12.93
2023-03-05T19:22:34.179Z,11.95
2023-03-05T19:25:00.684Z,13.75
2023-03-05T19:27:27.720Z,15.65
2023-03-05T19:29:54.823Z,17.25
2023-03-05T19:32:21.703Z,14.75
2023-03-05T19:34:48.739Z,13.73
2023-03-05T19:37:15.755Z,15.38
2023-03-05T19:39:42.439Z,15.68
2023-03-05T19:42:09.138Z,16.67
2023-03-05T19:44:35.847Z,18.88
2023-03-05T19:47:02.474Z,15.85
2023-03-05T19:49:29.288Z,15.70
2023-03-05T19:51:55.774Z,14.32
2023-03-05T19:54:23.283Z,13.30
2023-03-05T19:56:52.347Z,16.65
2023-03-05T19:59:20.708Z,14.15
2023-03-05T20:01:48.616Z,12.63
2023-03-05T20:04:21.261Z,12.98
2023-03-05T20:06:48.013Z,17.45
2023-03-05T20:09:15.332Z,23.05
2023-03-05T20:11:42.349Z,18.77
2023-03-05T20:14:09.865Z,15.57
2023-03-05T20:16:37.573Z,14.40
2023-03-05T20:19:05.865Z,16.00
2023-03-05T20:21:35.360Z,17.70
2023-03-05T20:24:04.683Z,17.80
2023-03-05T20:26:34.373Z,17.45
2023-03-05T20:29:00.881Z,13.40
2023-03-05T20:31:27.943Z,15.82
2023-03-05T20:33:55.867Z,14.35
2023-03-05T20:36:23.484Z,17.33
2023-03-05T20:38:50.254Z,13.68
2023-03-05T20:41:18.942Z,14.40
2023-03-05T20:43:47.806Z,14.82
2023-03-05T20:46:32.878Z,14.13
2023-03-05T20:49:01.947Z,18.23
2023-03-05T20:51:33.041Z,18.80
2023-03-05T20:54:04.126Z,13.30
2023-03-05T20:56:32.524Z,12.82
2023-03-05T20:59:00.504Z,17.23
2023-03-05T21:01:27.959Z,18.42
2023-03-05T21:03:56.326Z,17.50
2023-03-05T21:06:23.608Z,17.65
2023-03-05T21:08:50.266Z,18.27
2023-03-05T21:11:17.074Z,18.08
2023-03-05T21:13:44.375Z,17.70
2023-03-05T21:16:16.214Z,18.13
2023-03-05T21:18:42.750Z,17.70
2023-03-05T21:21:09.291Z,17.02
2023-03-05T21:23:35.783Z,19.23
2023-03-05T21:26:02.761Z,18.85
2023-03-05T21:28:29.785Z,18.10
2023-03-05T21:30:56.681Z,21.45
2023-03-05T21:33:30.026Z,20.30
2023-03-05T21:35:57.212Z,19.02
2023-03-05T21:38:25.181Z,19.95
2023-03-05T21:40:53.470Z,20.15
2023-03-05T21:43:22.756Z,16.80
2023-03-05T21:45:51.037Z,18.05
2023-03-05T21:48:17.774Z,19.60
2023-03-05T21:50:45.219Z,20.35
2023-03-05T21:53:12.981Z,19.92
2023-03-05T21:55:40.339Z,19.15
2023-03-05T21:58:06.830Z,23.08
2023-03-05T22:00:33.394Z,19.33
2023-03-05T22:02:59.857Z,19.80
2023-03-05T22:05:26.387Z,16.85
2023-03-05T22:07:52.903Z,18.83
2023-03-05T22:10:20.240Z,18.58
2023-03-05T22:12:59.809Z,18.25
2023-03-05T22:15:26.373Z,18.00
2023-03-05T22:17:52.822Z,16.95
2023-03-05T22:20:19.337Z,20.40
2023-03-05T22:22:46.222Z,22.95
2023-03-05T22:25:14.974Z,21.10
2023-03-05T22:27:42.650Z,19.45
2023-03-05T22:30:11.540Z,18.83
2023-03-05T22:32:38.498Z,21.33
2023-03-05T22:35:06.347Z,20.25
2023-03-05T22:37:33.135Z,21.10
2023-03-05T22:39:59.620Z,23.55
2023-03-05T22:42:26.265Z,18.67
2023-03-05T22:44:57.264Z,24.05
2023-03-05T22:47:25.298Z,14.30
2023-03-05T22:49:51.816Z,18.15
2023-03-05T22:52:18.471Z,20.75
2023-03-05T22:54:44.989Z,18.60
2023-03-05T22:57:11.811Z,21.50
2023-03-05T22:59:38.283Z,18.83
2023-03-05T23:02:05.008Z,20.35
2023-03-05T23:04:35.117Z,23.45
2023-03-05T23:07:01.611Z,19.40
2023-03-05T23:09:28.139Z,19.48
2023-03-05T23:11:54.727Z,22.67
2023-03-05T23:14:21.274Z,18.20
2023-03-05T23:16:47.771Z,21.08
2023-03-05T23:19:14.277Z,19.40
2023-03-05T23:21:43.874Z,21.98
2023-03-05T23:24:10.358Z,23.60
2023-03-05T23:26:36.861Z,21.80
2023-03-05T23:29:03.344Z,22.17
2023-03-05T23:31:29.821Z,19.88
2023-03-05T23:33:56.340Z,22.88
2023-03-05T23:36:26.116Z,19.77
2023-03-05T23:38:52.625Z,20.40
2023-03-05T23:41:19.071Z,19.70
2023-03-05T23:43:45.586Z,21.65
2023-03-05T23:46:12.344Z,20.58
2023-03-05T23:48:38.940Z,21.10
2023-03-05T23:51:10.092Z,24.38
2023-03-05T23:53:37.213Z,22.15
2023-03-05T23:56:09.099Z,20.10
2023-03-05T23:58:37.505Z,20.95
